Time;durP1;ratioP1;P1;durP2;ratioP2;P2;SDS_P1;SDS_P2;PMS_P1;PMS_P2;Temp;Humidity;BMP_temperature;BMP_pressure;BME280_temperature;BME280_humidity;BME280_pressure;Samples;Min_cycle;Max_cycle;Signal;HPM_P1;HPM_P2
2023/10/19 00:01:09;;;;;;;28.90;15.53;;;;;;;-148.15;100.00;61821.78;5007843;28;20125;-95
2023/10/19 00:03:56;;;;;;;27.90;15.70;;;;;;;-148.15;100.00;61821.78;5005087;28;20305;-95
2023/10/19 00:06:23;;;;;;;27.08;17.42;;;;;;;-148.15;100.00;61821.78;5004733;28;20038;-95
2023/10/19 00:08:52;;;;;;;27.67;15.70;;;;;;;-148.15;100.00;61821.78;5008013;28;20106;-95
2023/10/19 00:11:25;;;;;;;30.88;15.70;;;;;;;-148.15;100.00;61821.78;5008316;28;20022;-95
2023/10/19 00:13:54;;;;;;;25.55;15.18;;;;;;;-148.15;100.00;61821.78;5009859;28;20042;-94
2023/10/19 00:18:59;;;;;;;23.70;15.77;;;;;;;-148.15;100.00;61821.78;4999280;28;20434;-95
2023/10/19 00:21:25;;;;;;;25.50;13.60;;;;;;;-148.15;100.00;61821.78;5022631;28;20026;-95
2023/10/19 00:23:56;;;;;;;24.00;13.82;;;;;;;-148.15;100.00;61821.78;5008210;28;20034;-94
2023/10/19 00:26:24;;;;;;;23.00;12.43;;;;;;;-148.15;100.00;61821.78;5005780;28;20089;-96
2023/10/19 00:28:53;;;;;;;23.67;13.33;;;;;;;-148.15;100.00;61821.78;5014413;28;20309;-95
2023/10/19 00:31:22;;;;;;;26.00;15.00;;;;;;;-148.15;100.00;61821.78;5006208;28;20053;-94
2023/10/19 00:33:51;;;;;;;26.25;14.60;;;;;;;-148.15;100.00;61821.78;4999614;28;20023;-94
2023/10/19 00:36:20;;;;;;;23.95;14.57;;;;;;;-148.15;100.00;61821.78;5012328;28;20054;-95
2023/10/19 00:41:21;;;;;;;25.85;14.20;;;;;;;-148.15;100.00;61821.78;5004842;28;20030;-95
2023/10/19 00:43:49;;;;;;;26.98;13.80;;;;;;;-148.15;100.00;61821.78;5004401;28;20046;-95
2023/10/19 00:48:56;;;;;;;25.87;14.80;;;;;;;-148.15;100.00;61821.78;4986492;28;20027;-96
2023/10/19 00:54:05;;;;;;;24.42;13.68;;;;;;;-148.15;100.00;61821.78;5027874;28;20030;-95
2023/10/19 00:56:34;;;;;;;25.23;13.35;;;;;;;-148.15;100.00;61821.78;5032545;28;20050;-96
2023/10/19 00:59:00;;;;;;;23.42;12.73;;;;;;;-148.15;100.00;61821.78;5034659;28;20032;-96
2023/10/19 01:01:29;;;;;;;27.05;13.55;;;;;;;-148.15;100.00;61821.78;5034567;28;20014;-95
2023/10/19 01:03:58;;;;;;;26.80;14.60;;;;;;;-148.15;100.00;61821.78;5017810;28;20030;-95
2023/10/19 01:06:25;;;;;;;25.93;15.13;;;;;;;-148.15;100.00;61821.78;5012271;28;20030;-96
2023/10/19 01:08:51;;;;;;;27.50;14.10;;;;;;;-148.15;100.00;61821.78;5015050;28;20273;-96
2023/10/19 01:11:21;;;;;;;25.10;13.70;;;;;;;-148.15;100.00;61821.78;5015357;28;20069;-96
2023/10/19 01:13:51;;;;;;;25.67;13.88;;;;;;;-148.15;100.00;61821.78;5012562;28;20077;-95
2023/10/19 01:16:20;;;;;;;26.08;13.27;;;;;;;-148.15;100.00;61821.78;5001030;28;20030;-96
2023/10/19 01:18:55;;;;;;;28.65;14.02;;;;;;;-148.15;100.00;61821.78;5011217;28;20034;-96
2023/10/19 01:21:50;;;;;;;23.05;12.48;;;;;;;-148.15;100.00;61821.78;5030641;28;20022;-96
2023/10/19 01:24:12;;;;;;;22.20;12.40;;;;;;;-148.15;100.00;61821.78;5020856;28;20058;-95
2023/10/19 01:26:38;;;;;;;25.67;12.73;;;;;;;-148.15;100.00;61821.78;5034945;28;20017;-96
2023/10/19 01:29:13;;;;;;;28.90;12.57;;;;;;;-148.15;100.00;61821.78;5035629;28;20277;-95
2023/10/19 01:31:51;;;;;;;21.55;12.32;;;;;;;-148.15;100.00;61821.78;5034668;28;20029;-96
2023/10/19 01:34:19;;;;;;;25.85;12.90;;;;;;;-148.15;100.00;61821.78;5024075;28;20021;-95
2023/10/19 01:36:45;;;;;;;22.53;11.30;;;;;;;-148.15;100.00;61821.78;5014608;28;20018;-95
2023/10/19 01:39:11;;;;;;;18.20;11.33;;;;;;;-148.15;100.00;61821.78;5015597;28;20749;-96
2023/10/19 01:41:37;;;;;;;21.02;11.77;;;;;;;-148.15;100.00;61821.78;5016482;28;20034;-96
2023/10/19 01:44:06;;;;;;;19.48;11.02;;;;;;;-148.15;100.00;61821.78;5015958;28;20026;-96
2023/10/19 01:46:37;;;;;;;21.60;11.38;;;;;;;-148.15;100.00;61821.78;5013789;28;20062;-96
2023/10/19 01:49:04;;;;;;;20.20;10.90;;;;;;;-148.15;100.00;61821.78;5000289;28;20023;-96
2023/10/19 01:51:38;;;;;;;21.50;12.05;;;;;;;-148.15;100.00;61821.78;5014258;28;20062;-96
2023/10/19 01:54:06;;;;;;;18.17;9.88;;;;;;;-148.15;100.00;61821.78;5016301;28;20057;-96
2023/10/19 01:56:35;;;;;;;18.02;9.48;;;;;;;-148.15;100.00;61821.78;5016255;28;20022;-95
2023/10/19 01:59:01;;;;;;;16.30;8.98;;;;;;;-148.15;100.00;61821.78;5017797;28;20045;-96
2023/10/19 02:03:57;;;;;;;18.97;7.80;;;;;;;-148.15;100.00;61821.78;5017734;28;20277;-96
2023/10/19 02:06:26;;;;;;;16.55;8.52;;;;;;;-148.15;100.00;61821.78;5020624;28;20065;-95
2023/10/19 02:09:21;;;;;;;15.93;8.13;;;;;;;-148.15;100.00;61821.78;5025368;28;20030;-95
2023/10/19 02:11:49;;;;;;;14.52;6.97;;;;;;;-148.15;100.00;61821.78;5018139;28;20082;-95
2023/10/19 02:14:16;;;;;;;14.77;7.40;;;;;;;-148.15;100.00;61821.78;5016117;28;20031;-95
2023/10/19 02:16:47;;;;;;;14.07;7.07;;;;;;;-148.15;100.00;61821.78;5016454;28;20037;-96
2023/10/19 02:19:12;;;;;;;16.17;6.70;;;;;;;-148.15;100.00;61821.78;5017255;28;20026;-96
2023/10/19 02:21:41;;;;;;;10.43;5.82;;;;;;;-148.15;100.00;61821.78;5012430;28;20027;-96
2023/10/19 02:24:16;;;;;;;10.25;5.22;;;;;;;-148.15;100.00;61821.78;5021382;28;20027;-96
2023/10/19 02:26:43;;;;;;;9.87;4.10;;;;;;;-148.15;100.00;61821.78;5013033;28;20030;-96
2023/10/19 02:29:09;;;;;;;7.00;3.60;;;;;;;-148.15;100.00;61821.78;5017921;28;20277;-96
2023/10/19 02:31:39;;;;;;;6.30;3.15;;;;;;;-148.15;100.00;61821.78;5017641;28;20025;-96
2023/10/19 02:34:06;;;;;;;6.43;3.08;;;;;;;-148.15;100.00;61821.78;5017588;28;20033;-95
2023/10/19 02:36:32;;;;;;;7.68;2.85;;;;;;;-148.15;100.00;61821.78;5012211;28;20026;-96
2023/10/19 02:38:58;;;;;;;9.13;2.80;;;;;;;-148.15;100.00;61821.78;5016205;28;20014;-96
2023/10/19 02:41:26;;;;;;;5.90;2.20;;;;;;;-148.15;100.00;61821.78;5018775;28;20038;-94
2023/10/19 02:44:01;;;;;;;7.68;2.17;;;;;;;-148.15;100.00;61821.78;5017933;28;20269;-94
2023/10/19 02:46:28;;;;;;;6.83;2.17;;;;;;;-148.15;100.00;61821.78;5018075;28;20029;-96
2023/10/19 02:54:06;;;;;;;5.80;2.33;;;;;;;-148.15;100.00;61821.78;5112588;23;20147;-95
2023/10/19 02:56:31;;;;;;;5.80;1.95;;;;;;;-148.15;100.00;61821.78;5056122;28;20053;-95
2023/10/19 02:59:07;;;;;;;6.87;2.23;;;;;;;-148.15;100.00;61821.78;5055122;28;20036;-95
2023/10/19 03:01:35;;;;;;;6.25;2.08;;;;;;;-148.15;100.00;61821.78;5056912;28;20028;-96
2023/10/19 03:04:02;;;;;;;7.68;1.85;;;;;;;-148.15;100.00;61821.78;5056036;28;20005;-96
2023/10/19 03:06:34;;;;;;;8.73;1.77;;;;;;;-148.15;100.00;61821.78;5056069;28;20314;-94
2023/10/19 03:12:04;;;;;;;5.50;1.80;;;;;;;-148.15;100.00;61821.78;5026251;28;20036;-95
2023/10/19 03:14:29;;;;;;;4.80;1.67;;;;;;;-148.15;100.00;61821.78;5046125;28;20025;-95
2023/10/19 03:16:56;;;;;;;9.90;2.03;;;;;;;-148.15;100.00;61821.78;5054975;28;20038;-96
2023/10/19 03:19:21;;;;;;;6.88;2.10;;;;;;;-148.15;100.00;61821.78;5055842;28;20017;-96
2023/10/19 03:21:50;;;;;;;7.38;2.20;;;;;;;-148.15;100.00;61821.78;5055728;28;20010;-95
2023/10/19 03:27:18;;;;;;;5.93;1.90;;;;;;;-148.15;100.00;61821.78;5044765;28;20047;-95
2023/10/19 03:30:02;;;;;;;6.00;1.80;;;;;;;-148.15;100.00;61821.78;5054940;28;20025;-96
2023/10/19 03:32:35;;;;;;;7.95;1.90;;;;;;;-148.15;100.00;61821.78;5055536;28;20038;-95
2023/10/19 03:35:01;;;;;;;4.60;1.85;;;;;;;-148.15;100.00;61821.78;5054689;28;20061;-96
2023/10/19 03:37:30;;;;;;;8.65;1.90;;;;;;;-148.15;100.00;61821.78;5054888;28;20024;-95
2023/10/19 03:39:56;;;;;;;7.35;1.75;;;;;;;-148.15;100.00;61821.78;5054821;28;20029;-95
2023/10/19 03:42:25;;;;;;;6.50;1.90;;;;;;;-148.15;100.00;61821.78;5052378;28;20033;-95
2023/10/19 03:44:53;;;;;;;11.63;2.00;;;;;;;-148.15;100.00;61821.78;5055031;28;20029;-95
2023/10/19 03:47:55;;;;;;;6.35;1.80;;;;;;;-148.15;100.00;61821.78;5056362;28;20029;-95
2023/10/19 03:50:20;;;;;;;5.53;2.05;;;;;;;-148.15;100.00;61821.78;5054310;28;20404;-95
2023/10/19 03:52:46;;;;;;;11.18;1.90;;;;;;;-148.15;100.00;61821.78;5055948;28;20022;-95
2023/10/19 03:55:14;;;;;;;6.80;1.57;;;;;;;-148.15;100.00;61821.78;5055909;28;20073;-96
2023/10/19 03:57:46;;;;;;;4.85;1.65;;;;;;;-148.15;100.00;61821.78;5047470;28;20021;-94
2023/10/19 04:00:16;;;;;;;7.43;1.90;;;;;;;-148.15;100.00;61821.78;5038470;28;20006;-95
2023/10/19 04:02:42;;;;;;;5.97;1.70;;;;;;;-148.15;100.00;61821.78;5041076;28;20295;-96
2023/10/19 04:05:14;;;;;;;5.88;1.70;;;;;;;-148.15;100.00;61821.78;5035698;28;20086;-95
2023/10/19 04:07:41;;;;;;;6.03;1.83;;;;;;;-148.15;100.00;61821.78;5055573;28;20014;-96
2023/10/19 04:12:36;;;;;;;6.30;1.80;;;;;;;-148.15;100.00;61821.78;5054877;28;20085;-95
2023/10/19 04:15:10;;;;;;;8.63;2.17;;;;;;;-148.15;100.00;61821.78;5037520;28;20500;-96
2023/10/19 04:17:36;;;;;;;7.27;1.90;;;;;;;-148.15;100.00;61821.78;5019919;28;20081;-96
2023/10/19 04:20:14;;;;;;;4.87;1.87;;;;;;;-148.15;100.00;61821.78;5031248;28;20338;-95
2023/10/19 04:22:39;;;;;;;6.57;2.40;;;;;;;-148.15;100.00;61821.78;5032016;28;20060;-96
2023/10/19 04:25:06;;;;;;;6.43;2.07;;;;;;;-148.15;100.00;61821.78;5031009;28;20053;-95
2023/10/19 04:27:35;;;;;;;9.95;2.83;;;;;;;-148.15;100.00;61821.78;5034406;28;20075;-96
2023/10/19 04:30:01;;;;;;;9.90;2.47;;;;;;;-148.15;100.00;61821.78;5030672;28;20021;-96
2023/10/19 04:32:31;;;;;;;9.73;2.70;;;;;;;-148.15;100.00;61821.78;5037726;28;20013;-94
2023/10/19 04:34:58;;;;;;;7.07;2.90;;;;;;;-148.15;100.00;61821.78;5027411;28;20350;-96
2023/10/19 04:37:24;;;;;;;7.32;3.03;;;;;;;-148.15;100.00;61821.78;5016590;28;20084;-96
2023/10/19 04:39:49;;;;;;;15.93;3.10;;;;;;;-148.15;100.00;61821.78;5016664;28;20025;-96
2023/10/19 04:42:15;;;;;;;8.90;2.90;;;;;;;-148.15;100.00;61821.78;5015284;28;20517;-95
2023/10/19 04:44:40;;;;;;;6.50;2.47;;;;;;;-148.15;100.00;61821.78;5013783;28;20048;-95
2023/10/19 04:47:05;;;;;;;8.50;2.63;;;;;;;-148.15;100.00;61821.78;5031309;28;20037;-96
2023/10/19 04:49:31;;;;;;;4.73;2.23;;;;;;;-148.15;100.00;61821.78;5031414;28;20037;-96
2023/10/19 04:51:56;;;;;;;8.23;2.37;;;;;;;-148.15;100.00;61821.78;5030838;28;20652;-96
2023/10/19 04:54:21;;;;;;;7.90;2.20;;;;;;;-148.15;100.00;61821.78;5029333;28;20104;-96
2023/10/19 04:56:48;;;;;;;9.73;2.20;;;;;;;-148.15;100.00;61821.78;5030676;28;20048;-96
2023/10/19 04:59:13;;;;;;;6.00;1.80;;;;;;;-148.15;100.00;61821.78;5033120;28;20029;-96
2023/10/19 05:01:40;;;;;;;10.00;2.10;;;;;;;-148.15;100.00;61821.78;5028585;28;20030;-96
2023/10/19 05:04:05;;;;;;;4.28;1.90;;;;;;;-148.15;100.00;61821.78;5012757;28;20034;-95
2023/10/19 05:06:31;;;;;;;10.57;1.87;;;;;;;-148.15;100.00;61821.78;5022386;28;20038;-95
2023/10/19 05:08:57;;;;;;;9.80;1.90;;;;;;;-148.15;100.00;61821.78;5021722;28;20083;-96
2023/10/19 05:11:22;;;;;;;10.70;2.50;;;;;;;-148.15;100.00;61821.78;5025175;28;20044;-95
2023/10/19 05:13:47;;;;;;;10.73;2.90;;;;;;;-148.15;100.00;61821.78;5030614;28;20021;-95
2023/10/19 05:16:13;;;;;;;9.18;2.50;;;;;;;-148.15;100.00;61821.78;5039162;28;20037;-96
2023/10/19 05:18:38;;;;;;;10.03;2.40;;;;;;;-148.15;100.00;61821.78;5047427;28;20036;-96
2023/10/19 05:21:05;;;;;;;10.10;2.47;;;;;;;-148.15;100.00;61821.78;5048597;28;20095;-95
2023/10/19 05:23:32;;;;;;;8.77;2.50;;;;;;;-148.15;100.00;61821.78;5040156;28;20036;-95
2023/10/19 05:26:06;;;;;;;8.93;2.30;;;;;;;-148.15;100.00;61821.78;5050095;28;20049;-94
2023/10/19 05:28:32;;;;;;;6.87;1.90;;;;;;;-148.15;100.00;61821.78;5039960;28;20025;-96
2023/10/19 05:30:59;;;;;;;11.20;2.60;;;;;;;-148.15;100.00;61821.78;5035606;28;20272;-93
2023/10/19 05:33:25;;;;;;;12.80;2.60;;;;;;;-148.15;100.00;61821.78;5028184;28;20036;-93
2023/10/19 05:35:51;;;;;;;13.07;2.10;;;;;;;-148.15;100.00;61821.78;5017931;28;20053;-94
2023/10/19 05:38:19;;;;;;;11.93;2.30;;;;;;;-148.15;100.00;61821.78;5033132;28;20072;-93
2023/10/19 05:40:45;;;;;;;6.40;2.20;;;;;;;-148.15;100.00;61821.78;5032563;28;20825;-93
2023/10/19 05:43:10;;;;;;;9.13;2.65;;;;;;;-148.15;100.00;61821.78;5035056;28;20025;-94
2023/10/19 05:45:36;;;;;;;10.83;2.53;;;;;;;-148.15;100.00;61821.78;5036286;28;20021;-92
2023/10/19 05:48:03;;;;;;;10.50;2.42;;;;;;;-148.15;100.00;61821.78;5034240;28;20035;-94
2023/10/19 05:50:29;;;;;;;12.43;2.60;;;;;;;-148.15;100.00;61821.78;5026358;28;20060;-95
2023/10/19 05:52:55;;;;;;;15.05;2.83;;;;;;;-148.15;100.00;61821.78;5033670;28;20033;-95
2023/10/19 05:55:21;;;;;;;12.40;2.60;;;;;;;-148.15;100.00;61821.78;5032188;28;20114;-94
2023/10/19 05:57:47;;;;;;;10.18;2.83;;;;;;;-148.15;100.00;61821.78;5026199;28;20017;-95
2023/10/19 06:00:13;;;;;;;12.10;2.70;;;;;;;-148.15;100.00;61821.78;5033918;28;20025;-95
2023/10/19 06:02:44;;;;;;;11.83;2.53;;;;;;;-148.15;100.00;61821.78;5022019;28;20298;-94
2023/10/19 06:05:16;;;;;;;20.20;3.08;;;;;;;-148.15;100.00;61821.78;5023579;28;20456;-92
2023/10/19 06:07:46;;;;;;;10.90;2.72;;;;;;;-148.15;100.00;61821.78;5012584;28;20507;-93
2023/10/19 06:10:16;;;;;;;15.82;2.72;;;;;;;-148.15;100.00;61821.78;5013010;28;20030;-93
2023/10/19 06:12:44;;;;;;;11.98;2.60;;;;;;;-148.15;100.00;61821.78;5014303;28;20121;-92
2023/10/19 06:15:11;;;;;;;16.42;2.85;;;;;;;-148.15;100.00;61821.78;5012856;28;20096;-93
2023/10/19 06:17:37;;;;;;;13.87;2.73;;;;;;;-148.15;100.00;61821.78;5013942;28;20539;-93
2023/10/19 06:20:04;;;;;;;11.07;2.67;;;;;;;-148.15;100.00;61821.78;5028344;28;20295;-93
2023/10/19 06:25:06;;;;;;;8.18;2.15;;;;;;;-148.15;100.00;61821.78;5729294;22;20058;-92
2023/10/19 06:27:31;;;;;;;10.07;2.70;;;;;;;-148.15;100.00;61821.78;5006955;28;20065;-94
2023/10/19 06:29:59;;;;;;;12.03;2.73;;;;;;;-148.15;100.00;61821.78;5021813;28;20010;-95
2023/10/19 06:32:26;;;;;;;14.82;2.60;;;;;;;-148.15;100.00;61821.78;5031839;28;20038;-96
2023/10/19 06:34:55;;;;;;;10.60;2.88;;;;;;;-148.15;100.00;61821.78;5032474;28;20024;-96
2023/10/19 06:37:25;;;;;;;10.93;2.20;;;;;;;-148.15;100.00;61821.78;5031149;28;20022;-96
2023/10/19 06:39:54;;;;;;;12.68;2.70;;;;;;;-148.15;100.00;61821.78;5034592;28;20024;-95
2023/10/19 06:42:20;;;;;;;11.67;2.70;;;;;;;-148.15;100.00;61821.78;5023098;28;20046;-96
2023/10/19 06:44:46;;;;;;;16.73;2.88;;;;;;;-148.15;100.00;61821.78;5016805;28;20025;-96
2023/10/19 06:47:13;;;;;;;9.45;2.42;;;;;;;-148.15;100.00;61821.78;5013819;28;20215;-94
2023/10/19 06:49:39;;;;;;;13.23;3.00;;;;;;;-148.15;100.00;61821.78;5013373;28;20041;-89
2023/10/19 06:52:04;;;;;;;15.15;2.92;;;;;;;-148.15;100.00;61821.78;5007592;28;20152;-88
2023/10/19 06:54:30;;;;;;;14.03;2.90;;;;;;;-148.15;100.00;61821.78;5011996;28;20104;-91
2023/10/19 06:56:56;;;;;;;13.37;3.27;;;;;;;-148.15;100.00;61821.78;5015188;28;20546;-89
2023/10/19 06:59:21;;;;;;;12.85;3.10;;;;;;;-148.15;100.00;61821.78;5010759;28;20109;-87
2023/10/19 07:01:47;;;;;;;20.23;3.20;;;;;;;-148.15;100.00;61821.78;4997662;28;20371;-90
2023/10/19 07:04:12;;;;;;;14.97;2.93;;;;;;;-148.15;100.00;61821.78;4998218;28;20028;-87
2023/10/19 07:06:38;;;;;;;15.88;3.70;;;;;;;-148.15;100.00;61821.78;5002717;28;20046;-89
2023/10/19 07:09:05;;;;;;;15.33;3.43;;;;;;;-148.15;100.00;61821.78;4993878;28;20022;-89
2023/10/19 07:11:33;;;;;;;13.23;3.13;;;;;;;-148.15;100.00;61821.78;4997253;28;20439;-90
2023/10/19 07:13:59;;;;;;;22.38;3.25;;;;;;;-148.15;100.00;61821.78;5000577;28;20022;-90
2023/10/19 07:16:26;;;;;;;18.80;3.22;;;;;;;-148.15;100.00;61821.78;5006665;28;20030;-93
2023/10/19 07:18:52;;;;;;;9.85;3.00;;;;;;;-148.15;100.00;61821.78;5019677;28;20021;-94
2023/10/19 07:21:25;;;;;;;16.95;3.72;;;;;;;-148.15;100.00;61821.78;5014223;28;20520;-95
2023/10/19 07:23:53;;;;;;;12.07;3.33;;;;;;;-148.15;100.00;61821.78;5011550;28;20030;-94
2023/10/19 07:26:19;;;;;;;10.43;3.07;;;;;;;-148.15;100.00;61821.78;5030303;28;20018;-94
2023/10/19 07:28:45;;;;;;;14.90;3.23;;;;;;;-148.15;100.00;61821.78;5027833;28;20281;-93
2023/10/19 07:31:15;;;;;;;14.02;3.13;;;;;;;-148.15;100.00;61821.78;5011962;28;20028;-94
2023/10/19 07:33:45;;;;;;;18.45;3.45;;;;;;;-148.15;100.00;61821.78;5025002;28;20426;-94
2023/10/19 07:36:18;;;;;;;19.53;3.60;;;;;;;-148.15;100.00;61821.78;5026579;28;20033;-94
2023/10/19 07:38:46;;;;;;;10.70;2.67;;;;;;;-148.15;100.00;61821.78;5022334;28;20297;-94
2023/10/19 07:41:14;;;;;;;9.85;2.30;;;;;;;-148.15;100.00;61821.78;5024554;28;20034;-96
2023/10/19 07:43:40;;;;;;;11.05;2.90;;;;;;;-148.15;100.00;61821.78;5012451;28;20034;-92
2023/10/19 07:46:08;;;;;;;16.15;3.10;;;;;;;-148.15;100.00;61821.78;5014016;28;20040;-92
2023/10/19 07:48:33;;;;;;;12.82;3.05;;;;;;;-148.15;100.00;61821.78;5008849;28;20490;-92
2023/10/19 07:50:59;;;;;;;12.10;3.03;;;;;;;-148.15;100.00;61821.78;5002762;28;20029;-91
2023/10/19 07:53:24;;;;;;;12.73;2.50;;;;;;;-148.15;100.00;61821.78;5010153;28;20084;-92
2023/10/19 07:55:50;;;;;;;16.33;2.80;;;;;;;-148.15;100.00;61821.78;5015239;28;20021;-92
2023/10/19 07:58:15;;;;;;;12.60;3.00;;;;;;;-148.15;100.00;61821.78;5029606;28;20544;-94
2023/10/19 08:00:42;;;;;;;17.73;3.53;;;;;;;-148.15;100.00;61821.78;5031873;28;20135;-92
2023/10/19 08:03:10;;;;;;;13.37;2.50;;;;;;;-148.15;100.00;61821.78;5012278;28;20278;-94
2023/10/19 08:05:36;;;;;;;17.92;3.17;;;;;;;-148.15;100.00;61821.78;5008006;28;20159;-90
2023/10/19 08:08:03;;;;;;;17.27;2.95;;;;;;;-148.15;100.00;61821.78;5010969;28;20026;-91
2023/10/19 08:10:29;;;;;;;11.82;2.50;;;;;;;-148.15;100.00;61821.78;4998742;28;20425;-92
2023/10/19 08:12:55;;;;;;;12.77;2.60;;;;;;;-148.15;100.00;61821.78;5005625;28;20026;-90
2023/10/19 08:15:21;;;;;;;17.35;2.78;;;;;;;-148.15;100.00;61821.78;5007391;28;20037;-93
2023/10/19 08:17:49;;;;;;;13.67;2.63;;;;;;;-148.15;100.00;61821.78;5000094;28;20036;-93
2023/10/19 08:20:16;;;;;;;13.43;2.73;;;;;;;-148.15;100.00;61821.78;4993338;28;20297;-93
2023/10/19 08:22:46;;;;;;;19.70;2.78;;;;;;;-148.15;100.00;61821.78;5011071;28;20029;-93
2023/10/19 08:25:27;;;;;;;14.32;2.38;;;;;;;-148.15;100.00;61821.78;5009384;28;20041;-93
2023/10/19 08:27:58;;;;;;;9.73;2.35;;;;;;;-148.15;100.00;61821.78;5015985;28;20537;-92
2023/10/19 08:30:24;;;;;;;12.70;2.55;;;;;;;-148.15;100.00;61821.78;5012543;28;20029;-92
2023/10/19 08:32:51;;;;;;;7.63;2.70;;;;;;;-148.15;100.00;61821.78;5013245;28;20030;-92
2023/10/19 08:35:20;;;;;;;12.77;3.00;;;;;;;-148.15;100.00;61821.78;4994909;28;20118;-92
2023/10/19 08:37:47;;;;;;;13.68;2.83;;;;;;;-148.15;100.00;61821.78;4994038;28;20034;-92
2023/10/19 08:40:15;;;;;;;14.85;2.90;;;;;;;-148.15;100.00;61821.78;5001471;28;20033;-92
2023/10/19 08:42:48;;;;;;;10.83;2.87;;;;;;;-148.15;100.00;61821.78;5008317;28;20041;-91
2023/10/19 08:45:14;;;;;;;18.90;2.77;;;;;;;-148.15;100.00;61821.78;5010223;28;20304;-92
2023/10/19 08:47:57;;;;;;;12.82;2.47;;;;;;;-148.15;100.00;61821.78;5010349;28;20030;-91
2023/10/19 08:50:29;;;;;;;13.70;2.83;;;;;;;-148.15;100.00;61821.78;4991459;28;20053;-92
2023/10/19 08:52:56;;;;;;;17.23;2.95;;;;;;;-148.15;100.00;61821.78;4992810;28;20029;-91
2023/10/19 08:55:22;;;;;;;15.23;2.55;;;;;;;-148.15;100.00;61821.78;5005558;28;20049;-91
2023/10/19 08:57:50;;;;;;;9.10;2.53;;;;;;;-148.15;100.00;61821.78;5015157;28;20026;-90
2023/10/19 09:00:27;;;;;;;15.75;2.80;;;;;;;5.10;100.00;101703.09;5014508;28;20101;-92
2023/10/19 09:02:56;;;;;;;11.98;2.85;;;;;;;-148.15;100.00;61821.78;5013997;28;20026;-92
2023/10/19 09:05:22;;;;;;;14.05;2.60;;;;;;;-148.15;100.00;61821.78;5014607;28;20437;-92
2023/10/19 09:07:54;;;;;;;14.70;2.70;;;;;;;-148.15;100.00;61821.78;5007361;28;20753;-90
2023/10/19 09:10:25;;;;;;;11.70;2.57;;;;;;;-148.15;100.00;61821.78;5004457;28;20296;-89
2023/10/19 09:13:12;;;;;;;9.88;2.40;;;;;;;-148.15;100.00;61821.78;5014432;28;20077;-91
2023/10/19 09:15:38;;;;;;;15.57;2.70;;;;;;;-148.15;100.00;61821.78;5016732;28;20030;-93
2023/10/19 09:18:22;;;;;;;11.50;2.40;;;;;;;-148.15;100.00;61821.78;5017300;28;20034;-91
2023/10/19 09:20:54;;;;;;;14.02;2.80;;;;;;;-148.15;100.00;61821.78;5006345;28;20030;-92
2023/10/19 09:23:21;;;;;;;14.93;2.43;;;;;;;-148.15;100.00;61821.78;5007453;28;20022;-91
2023/10/19 09:25:52;;;;;;;13.97;3.07;;;;;;;-148.15;100.00;61821.78;5009672;28;20323;-92
2023/10/19 09:28:18;;;;;;;14.32;2.28;;;;;;;-148.15;100.00;61821.78;5015142;28;20037;-92
2023/10/19 09:30:44;;;;;;;17.02;2.35;;;;;;;-148.15;100.00;61821.78;5006834;28;20021;-92
2023/10/19 09:33:10;;;;;;;12.85;2.53;;;;;;;-148.15;100.00;61821.78;5012450;28;20026;-89
2023/10/19 09:35:48;;;;;;;21.83;2.13;;;;;;;5.10;100.00;101703.09;5000845;28;20465;-89
2023/10/19 09:38:15;;;;;;;15.87;2.27;;;;;;;-148.15;100.00;61821.78;5005742;28;20034;-89
2023/10/19 09:40:55;;;;;;;13.15;2.47;;;;;;;5.10;100.00;101703.09;5011814;28;20037;-89
2023/10/19 09:43:34;;;;;;;14.45;2.70;;;;;;;-148.15;100.00;61821.78;5009733;28;20484;-89
2023/10/19 09:46:13;;;;;;;20.25;2.25;;;;;;;5.10;100.00;101703.09;4998967;28;20778;-89
2023/10/19 09:49:18;;;;;;;15.02;2.20;;;;;;;-148.15;100.00;61821.78;4994871;28;20034;-89
2023/10/19 09:58:24;;;;;;;9.93;2.10;;;;;;;-148.15;100.00;61821.78;5667172;23;20117;-88
2023/10/19 10:00:51;;;;;;;11.77;2.25;;;;;;;5.10;100.00;61821.78;4976490;28;20077;-88
2023/10/19 10:03:49;;;;;;;12.90;2.65;;;;;;;-148.15;100.00;61821.78;4973267;28;20057;-90
2023/10/19 10:06:16;;;;;;;9.43;2.17;;;;;;;-148.15;100.00;101703.09;4972824;28;20026;-90
2023/10/19 10:08:48;;;;;;;14.33;2.10;;;;;;;-148.15;100.00;61821.78;4972729;28;20383;-90
2023/10/19 10:11:18;;;;;;;11.85;1.80;;;;;;;-148.15;100.00;61821.78;4969489;28;20497;-94
2023/10/19 10:14:25;;;;;;;10.60;1.90;;;;;;;-148.15;100.00;61821.78;4974262;28;20031;-89
2023/10/19 10:17:09;;;;;;;12.52;2.03;;;;;;;-148.15;100.00;61821.78;4961843;28;20038;-91
2023/10/19 10:19:35;;;;;;;11.27;1.90;;;;;;;-148.15;100.00;61821.78;4966104;28;20027;-90
2023/10/19 10:22:14;;;;;;;11.33;1.63;;;;;;;-148.15;100.00;61821.78;4973879;28;20150;-91
2023/10/19 10:24:44;;;;;;;11.20;2.07;;;;;;;-148.15;100.00;61821.78;4974866;28;20799;-90
2023/10/19 10:27:13;;;;;;;11.65;1.83;;;;;;;-148.15;100.00;61821.78;4973184;28;20244;-90
2023/10/19 10:29:54;;;;;;;12.13;1.77;;;;;;;-148.15;100.00;61821.78;4973697;28;20078;-90
2023/10/19 10:32:57;;;;;;;13.82;1.88;;;;;;;-148.15;100.00;61821.78;4974223;28;20470;-91
2023/10/19 10:35:40;;;;;;;10.23;1.88;;;;;;;-148.15;100.00;61821.78;4974245;28;20142;-90
2023/10/19 10:38:14;;;;;;;9.87;1.93;;;;;;;-148.15;100.00;61821.78;4976069;28;20077;-90
2023/10/19 10:40:50;;;;;;;8.63;2.13;;;;;;;-148.15;100.00;61821.78;4978757;28;20302;-89
2023/10/19 10:43:16;;;;;;;12.82;1.95;;;;;;;-148.15;100.00;61821.78;4978828;28;20570;-89
2023/10/19 10:45:42;;;;;;;10.95;2.25;;;;;;;-148.15;100.00;61821.78;4975930;28;20113;-89
2023/10/19 10:48:14;;;;;;;8.88;2.20;;;;;;;-148.15;100.00;61821.78;4985745;28;20030;-89
2023/10/19 10:50:41;;;;;;;18.93;2.20;;;;;;;-148.15;100.00;61821.78;4980944;28;20077;-90
2023/10/19 10:53:07;;;;;;;9.03;2.20;;;;;;;-148.15;100.00;61821.78;4974725;28;20707;-89
2023/10/19 10:55:33;;;;;;;10.35;2.00;;;;;;;-148.15;100.00;61821.78;4976490;28;20061;-90
2023/10/19 10:57:59;;;;;;;11.20;2.23;;;;;;;-148.15;100.00;61821.78;4976230;28;20399;-90
2023/10/19 11:00:26;;;;;;;12.75;1.90;;;;;;;-148.15;100.00;61821.78;4976541;28;20050;-90
2023/10/19 11:03:09;;;;;;;9.63;2.13;;;;;;;-148.15;100.00;61821.78;4973679;28;20030;-91
2023/10/19 11:05:38;;;;;;;7.72;2.15;;;;;;;-148.15;100.00;61821.78;4958618;28;20364;-90
2023/10/19 11:08:21;;;;;;;10.13;2.55;;;;;;;-148.15;100.00;61821.78;4961435;28;20032;-91
2023/10/19 11:10:47;;;;;;;9.47;2.33;;;;;;;-148.15;100.00;61821.78;4976614;28;20033;-90
2023/10/19 11:13:15;;;;;;;10.87;2.37;;;;;;;-148.15;100.00;61821.78;4974149;28;20727;-88
2023/10/19 11:15:52;;;;;;;13.05;2.67;;;;;;;-148.15;100.00;61821.78;4971147;28;20039;-89
2023/10/19 11:18:37;;;;;;;11.15;2.35;;;;;;;-148.15;100.00;61821.78;4968576;28;20042;-89
2023/10/19 11:21:05;;;;;;;10.05;2.00;;;;;;;-148.15;100.00;61821.78;4974131;28;20401;-87
2023/10/19 11:23:52;;;;;;;14.65;2.65;;;;;;;-148.15;100.00;61821.78;4974138;28;20457;-89
2023/10/19 11:26:20;;;;;;;9.43;1.87;;;;;;;-148.15;100.00;61821.78;4972807;28;20118;-89
2023/10/19 11:28:53;;;;;;;11.03;2.10;;;;;;;-148.15;100.00;61821.78;4968768;28;20596;-87
2023/10/19 11:31:23;;;;;;;11.60;2.22;;;;;;;-148.15;100.00;61821.78;4974991;28;20030;-88
2023/10/19 11:33:51;;;;;;;10.20;1.85;;;;;;;-148.15;100.00;61821.78;4974217;28;20022;-90
2023/10/19 11:36:17;;;;;;;11.95;2.25;;;;;;;-148.15;100.00;61821.78;4978443;28;20057;-91
2023/10/19 11:38:45;;;;;;;9.90;2.30;;;;;;;-148.15;100.00;61821.78;4978294;28;20467;-89
2023/10/19 11:41:12;;;;;;;9.37;2.47;;;;;;;-148.15;100.00;61821.78;4973241;28;20066;-90
2023/10/19 11:43:38;;;;;;;9.90;2.10;;;;;;;-148.15;100.00;61821.78;4974946;28;20035;-89
2023/10/19 11:46:06;;;;;;;8.82;2.00;;;;;;;-148.15;100.00;61821.78;4988724;28;20531;-88
2023/10/19 11:48:39;;;;;;;10.20;2.10;;;;;;;-148.15;100.00;61821.78;4974293;28;20515;-88